עמוד ראשי
METAR-TAF:

METAR-TAF

שדות תעופה :

Bella Bella, קולומביה הבריטית, קנדה

קו רוחב: 52-11-06N, קו אורך: 128-09-24W, גובה: 43מטר

תצפית מזג אוויר נוכחית

הדו"ח נערך לפני 23דקות, בשעה 23:20 UTC
רוח 8קשר מכיוון דרום/דרום-מזרח עם משבים עד 16קשר
טמפרטורת 10 צלסיוס
לחות 93%
לחץ 1013 hPa
ראות: 14.5קילומטר
מעט עננים בגובה 1400רגל
מעונן בגובה 6000רגל

METAR: CBBC 262320Z AUTO 16008G16KT 9SM FEW014 OVC060 10/09 A2992 RMK ICE MISG SLP136

זמן: 16:43 (23:43 UTC)

תחזית

הדו"ח נערך לפני 5 שעות ו 3דקות, בשעה 18:40 UTC
תחזית בתוקף מ 26 ב 19 UTC עד 27 ב 05 UTC
רוח 8קשר מכיוון דרום-מזרח
ראות: 10קילומטר
עננים פזורים בגובה 1500רגל
מעונן בגובה 3000רגל
גשם קל
זמנית מ -
26 ב 19 UTC עד 27 ב 05 UTC
ראות: 6.4קילומטר
מעט עננים בגובה 800רגל
עננים בינוניים בגובה 1500רגל
מעונן בגובה 3000רגל
ממטרי גשם קלים, אד
הסתברות 30%
26 ב 19 UTC עד 26 ב 21 UTC
עננים בינוניים בגובה 800רגל

TAF: CBBC 261840Z 2619/2705 14008KT P6SM -RA SCT015 OVC030 TEMPO 2619/2705 4SM -SHRA BR FEW008 BKN015 OVC030 PROB30 2619/2621 BKN008 RMK FCST BASED ON AUTO OBS. NXT FCST BY 270100Z

תצפיות ותחזיות מזג אוויר לגבי יותר מ- 4,000 שדות תעופה ברחבי העולם. דוחות METAR ו- TAF.

התחנות הזמינות מסומנות בנקודות צהובות ואדומות על גבי המפה.

העבר את העכבר לנקודה הצבעונית על מנת לראות את שם התחנה.

לאחר מכן, לחץ כדי לראות את תוכן ואת תחזיות מזג האוויר.

כדי לשנות את המפה: לחץ על הכפתורים הירוקים עם הפלוס השחור כדי להתקרב; על הכפתור הירוק עם המקף כדי להתרחק; או בחיצים הירוקים למפות סמוכות.


METAR-TAF: